sensor_id;sensor_type;location;lat;lon;timestamp;P1;durP1;ratioP1;P2;durP2;ratioP2
568;SDS011;269;48.884;9.192;2022-09-02T00:02:21;6.60;;;6.20;;
568;SDS011;269;48.884;9.192;2022-09-02T00:04:48;6.47;;;6.07;;
568;SDS011;269;48.884;9.192;2022-09-02T00:07:15;6.40;;;6.00;;
568;SDS011;269;48.884;9.192;2022-09-02T00:09:43;5.60;;;5.30;;
568;SDS011;269;48.884;9.192;2022-09-02T00:12:11;6.30;;;5.80;;
568;SDS011;269;48.884;9.192;2022-09-02T00:14:38;6.97;;;6.47;;
568;SDS011;269;48.884;9.192;2022-09-02T00:17:05;5.70;;;5.40;;
568;SDS011;269;48.884;9.192;2022-09-02T00:19:32;6.03;;;5.63;;
568;SDS011;269;48.884;9.192;2022-09-02T00:22:00;6.63;;;6.10;;
568;SDS011;269;48.884;9.192;2022-09-02T00:24:29;6.80;;;6.40;;
568;SDS011;269;48.884;9.192;2022-09-02T00:26:56;6.80;;;6.30;;
568;SDS011;269;48.884;9.192;2022-09-02T00:29:25;6.77;;;6.37;;
568;SDS011;269;48.884;9.192;2022-09-02T00:31:53;5.53;;;5.13;;
568;SDS011;269;48.884;9.192;2022-09-02T00:34:20;5.33;;;4.93;;
568;SDS011;269;48.884;9.192;2022-09-02T00:36:48;6.03;;;5.63;;
568;SDS011;269;48.884;9.192;2022-09-02T00:39:15;5.30;;;5.00;;
568;SDS011;269;48.884;9.192;2022-09-02T00:41:43;5.50;;;5.10;;
568;SDS011;269;48.884;9.192;2022-09-02T00:44:12;5.20;;;4.80;;
568;SDS011;269;48.884;9.192;2022-09-02T00:46:42;5.97;;;5.57;;
568;SDS011;269;48.884;9.192;2022-09-02T00:49:11;5.90;;;5.50;;
568;SDS011;269;48.884;9.192;2022-09-02T00:51:42;6.40;;;6.00;;
568;SDS011;269;48.884;9.192;2022-09-02T00:54:13;5.77;;;5.30;;
568;SDS011;269;48.884;9.192;2022-09-02T00:56:42;5.93;;;5.53;;
568;SDS011;269;48.884;9.192;2022-09-02T00:59:12;6.37;;;5.87;;
568;SDS011;269;48.884;9.192;2022-09-02T01:01:45;6.30;;;5.80;;
568;SDS011;269;48.884;9.192;2022-09-02T01:04:12;6.10;;;5.70;;
568;SDS011;269;48.884;9.192;2022-09-02T01:06:41;6.40;;;5.80;;
568;SDS011;269;48.884;9.192;2022-09-02T01:09:10;6.90;;;5.97;;
568;SDS011;269;48.884;9.192;2022-09-02T01:11:41;6.10;;;5.70;;
568;SDS011;269;48.884;9.192;2022-09-02T01:14:11;5.73;;;5.43;;
568;SDS011;269;48.884;9.192;2022-09-02T01:16:40;6.40;;;5.90;;
568;SDS011;269;48.884;9.192;2022-09-02T01:19:17;6.50;;;6.00;;
568;SDS011;269;48.884;9.192;2022-09-02T01:21:49;5.57;;;5.17;;
568;SDS011;269;48.884;9.192;2022-09-02T01:24:17;6.10;;;5.70;;
568;SDS011;269;48.884;9.192;2022-09-02T01:26:46;5.70;;;5.30;;
568;SDS011;269;48.884;9.192;2022-09-02T01:29:14;6.50;;;6.00;;
568;SDS011;269;48.884;9.192;2022-09-02T01:31:42;6.13;;;5.73;;
568;SDS011;269;48.884;9.192;2022-09-02T01:34:09;5.60;;;5.20;;
568;SDS011;269;48.884;9.192;2022-09-02T01:36:37;5.40;;;5.10;;
568;SDS011;269;48.884;9.192;2022-09-02T01:39:06;5.60;;;5.20;;
568;SDS011;269;48.884;9.192;2022-09-02T01:41:34;5.20;;;4.80;;
568;SDS011;269;48.884;9.192;2022-09-02T01:44:02;5.70;;;5.20;;
568;SDS011;269;48.884;9.192;2022-09-02T01:46:30;5.60;;;5.10;;
568;SDS011;269;48.884;9.192;2022-09-02T01:48:57;5.63;;;5.13;;
568;SDS011;269;48.884;9.192;2022-09-02T01:51:24;6.10;;;5.60;;
568;SDS011;269;48.884;9.192;2022-09-02T01:53:51;5.93;;;5.53;;
568;SDS011;269;48.884;9.192;2022-09-02T01:56:20;6.27;;;5.87;;
568;SDS011;269;48.884;9.192;2022-09-02T01:58:47;6.47;;;5.93;;
568;SDS011;269;48.884;9.192;2022-09-02T02:01:14;6.70;;;6.20;;
568;SDS011;269;48.884;9.192;2022-09-02T02:03:41;6.80;;;6.20;;
568;SDS011;269;48.884;9.192;2022-09-02T02:06:09;6.20;;;5.73;;
568;SDS011;269;48.884;9.192;2022-09-02T02:08:39;6.43;;;6.03;;
568;SDS011;269;48.884;9.192;2022-09-02T02:11:07;7.00;;;6.50;;
568;SDS011;269;48.884;9.192;2022-09-02T02:13:36;6.77;;;6.30;;
568;SDS011;269;48.884;9.192;2022-09-02T02:16:03;6.77;;;6.37;;
568;SDS011;269;48.884;9.192;2022-09-02T02:18:30;6.63;;;6.13;;
568;SDS011;269;48.884;9.192;2022-09-02T02:20:58;6.43;;;6.03;;
568;SDS011;269;48.884;9.192;2022-09-02T02:23:24;6.70;;;6.30;;
568;SDS011;269;48.884;9.192;2022-09-02T02:25:52;6.07;;;5.67;;
568;SDS011;269;48.884;9.192;2022-09-02T02:28:19;6.57;;;5.97;;
568;SDS011;269;48.884;9.192;2022-09-02T02:30:48;6.43;;;6.03;;
568;SDS011;269;48.884;9.192;2022-09-02T02:33:15;7.30;;;6.60;;
568;SDS011;269;48.884;9.192;2022-09-02T02:35:42;7.27;;;6.50;;
568;SDS011;269;48.884;9.192;2022-09-02T02:38:09;6.80;;;6.30;;
568;SDS011;269;48.884;9.192;2022-09-02T02:40:36;6.40;;;5.90;;
568;SDS011;269;48.884;9.192;2022-09-02T02:43:03;6.10;;;5.70;;
568;SDS011;269;48.884;9.192;2022-09-02T02:45:30;6.20;;;5.70;;
568;SDS011;269;48.884;9.192;2022-09-02T02:47:59;6.00;;;5.50;;
568;SDS011;269;48.884;9.192;2022-09-02T02:50:26;6.27;;;5.83;;
568;SDS011;269;48.884;9.192;2022-09-02T02:52:53;5.67;;;5.27;;
568;SDS011;269;48.884;9.192;2022-09-02T02:55:22;5.60;;;5.20;;
568;SDS011;269;48.884;9.192;2022-09-02T02:57:50;6.00;;;5.50;;
568;SDS011;269;48.884;9.192;2022-09-02T03:00:18;5.77;;;5.27;;
568;SDS011;269;48.884;9.192;2022-09-02T03:02:47;5.55;;;5.15;;
568;SDS011;269;48.884;9.192;2022-09-02T03:05:16;5.27;;;4.97;;
568;SDS011;269;48.884;9.192;2022-09-02T03:07:43;5.40;;;5.00;;
568;SDS011;269;48.884;9.192;2022-09-02T03:10:11;4.65;;;4.35;;
568;SDS011;269;48.884;9.192;2022-09-02T03:12:39;5.70;;;5.30;;
568;SDS011;269;48.884;9.192;2022-09-02T03:15:07;5.27;;;4.97;;
568;SDS011;269;48.884;9.192;2022-09-02T03:17:35;5.50;;;5.10;;
568;SDS011;269;48.884;9.192;2022-09-02T03:20:03;4.90;;;4.60;;
568;SDS011;269;48.884;9.192;2022-09-02T03:22:33;5.50;;;5.00;;
568;SDS011;269;48.884;9.192;2022-09-02T03:25:03;5.38;;;5.00;;
568;SDS011;269;48.884;9.192;2022-09-02T03:27:31;4.60;;;4.30;;
568;SDS011;269;48.884;9.192;2022-09-02T03:29:59;5.30;;;4.80;;
568;SDS011;269;48.884;9.192;2022-09-02T03:32:26;5.47;;;5.07;;
568;SDS011;269;48.884;9.192;2022-09-02T03:34:53;5.63;;;5.13;;
568;SDS011;269;48.884;9.192;2022-09-02T03:37:21;5.75;;;5.35;;
568;SDS011;269;48.884;9.192;2022-09-02T03:39:49;5.40;;;5.10;;
568;SDS011;269;48.884;9.192;2022-09-02T03:42:16;5.35;;;4.85;;
568;SDS011;269;48.884;9.192;2022-09-02T03:44:43;5.28;;;4.88;;
568;SDS011;269;48.884;9.192;2022-09-02T03:47:10;5.23;;;4.83;;
568;SDS011;269;48.884;9.192;2022-09-02T03:49:41;6.07;;;5.67;;
568;SDS011;269;48.884;9.192;2022-09-02T03:52:08;5.15;;;4.85;;
568;SDS011;269;48.884;9.192;2022-09-02T03:54:35;4.85;;;4.55;;
568;SDS011;269;48.884;9.192;2022-09-02T03:57:04;5.23;;;4.93;;
568;SDS011;269;48.884;9.192;2022-09-02T03:59:31;5.68;;;5.28;;
568;SDS011;269;48.884;9.192;2022-09-02T04:01:59;5.40;;;5.00;;
568;SDS011;269;48.884;9.192;2022-09-02T04:04:27;5.80;;;5.40;;
568;SDS011;269;48.884;9.192;2022-09-02T04:06:55;6.60;;;6.10;;
568;SDS011;269;48.884;9.192;2022-09-02T04:09:23;5.38;;;4.95;;
568;SDS011;269;48.884;9.192;2022-09-02T04:11:50;5.30;;;5.00;;
568;SDS011;269;48.884;9.192;2022-09-02T04:14:19;5.20;;;4.80;;
568;SDS011;269;48.884;9.192;2022-09-02T04:16:47;7.13;;;5.30;;
568;SDS011;269;48.884;9.192;2022-09-02T04:19:14;6.35;;;5.78;;
568;SDS011;269;48.884;9.192;2022-09-02T04:21:41;5.70;;;5.20;;
568;SDS011;269;48.884;9.192;2022-09-02T04:24:09;6.15;;;5.38;;
568;SDS011;269;48.884;9.192;2022-09-02T04:26:37;6.00;;;5.60;;
568;SDS011;269;48.884;9.192;2022-09-02T04:29:04;5.75;;;5.35;;
568;SDS011;269;48.884;9.192;2022-09-02T04:31:33;5.50;;;5.10;;
568;SDS011;269;48.884;9.192;2022-09-02T04:34:01;5.40;;;5.00;;
568;SDS011;269;48.884;9.192;2022-09-02T04:36:28;5.20;;;4.80;;
568;SDS011;269;48.884;9.192;2022-09-02T04:38:56;7.15;;;5.53;;
568;SDS011;269;48.884;9.192;2022-09-02T04:41:25;4.93;;;4.63;;
568;SDS011;269;48.884;9.192;2022-09-02T04:43:54;4.90;;;4.50;;
568;SDS011;269;48.884;9.192;2022-09-02T04:46:22;4.95;;;4.55;;
568;SDS011;269;48.884;9.192;2022-09-02T04:48:51;5.00;;;4.60;;
568;SDS011;269;48.884;9.192;2022-09-02T04:51:18;5.05;;;4.65;;
568;SDS011;269;48.884;9.192;2022-09-02T04:53:47;4.70;;;4.40;;
568;SDS011;269;48.884;9.192;2022-09-02T04:56:17;4.97;;;4.57;;
568;SDS011;269;48.884;9.192;2022-09-02T04:58:46;6.95;;;4.80;;
568;SDS011;269;48.884;9.192;2022-09-02T05:01:16;4.85;;;4.55;;
568;SDS011;269;48.884;9.192;2022-09-02T05:03:45;5.00;;;4.60;;
568;SDS011;269;48.884;9.192;2022-09-02T05:06:15;4.97;;;4.68;;
568;SDS011;269;48.884;9.192;2022-09-02T05:08:44;4.83;;;4.43;;
568;SDS011;269;48.884;9.192;2022-09-02T05:11:12;5.10;;;4.67;;
568;SDS011;269;48.884;9.192;2022-09-02T05:13:42;4.38;;;4.07;;
568;SDS011;269;48.884;9.192;2022-09-02T05:16:13;4.33;;;3.93;;
568;SDS011;269;48.884;9.192;2022-09-02T05:18:41;4.80;;;4.50;;
568;SDS011;269;48.884;9.192;2022-09-02T05:21:08;4.77;;;4.37;;
568;SDS011;269;48.884;9.192;2022-09-02T05:23:36;4.80;;;4.25;;
568;SDS011;269;48.884;9.192;2022-09-02T05:26:03;5.13;;;4.73;;
568;SDS011;269;48.884;9.192;2022-09-02T05:28:31;5.43;;;5.03;;
568;SDS011;269;48.884;9.192;2022-09-02T05:31:01;4.50;;;4.20;;
568;SDS011;269;48.884;9.192;2022-09-02T05:33:30;4.80;;;4.50;;
568;SDS011;269;48.884;9.192;2022-09-02T05:35:57;5.40;;;4.93;;
568;SDS011;269;48.884;9.192;2022-09-02T05:38:41;4.40;;;4.10;;
568;SDS011;269;48.884;9.192;2022-09-02T05:41:09;5.03;;;4.73;;
568;SDS011;269;48.884;9.192;2022-09-02T05:43:39;4.57;;;4.27;;
568;SDS011;269;48.884;9.192;2022-09-02T05:46:09;4.80;;;4.40;;
568;SDS011;269;48.884;9.192;2022-09-02T05:48:39;4.63;;;4.23;;
568;SDS011;269;48.884;9.192;2022-09-02T05:51:25;4.40;;;4.00;;
568;SDS011;269;48.884;9.192;2022-09-02T05:53:54;4.23;;;3.93;;
568;SDS011;269;48.884;9.192;2022-09-02T05:56:23;4.60;;;4.30;;
568;SDS011;269;48.884;9.192;2022-09-02T05:58:53;4.90;;;4.60;;
568;SDS011;269;48.884;9.192;2022-09-02T06:01:21;4.50;;;4.20;;
568;SDS011;269;48.884;9.192;2022-09-02T06:03:48;4.70;;;4.40;;
568;SDS011;269;48.884;9.192;2022-09-02T06:06:17;4.37;;;4.07;;
568;SDS011;269;48.884;9.192;2022-09-02T06:08:48;3.93;;;3.50;;
568;SDS011;269;48.884;9.192;2022-09-02T06:11:16;4.13;;;3.83;;
568;SDS011;269;48.884;9.192;2022-09-02T06:13:44;4.57;;;4.17;;
568;SDS011;269;48.884;9.192;2022-09-02T06:16:14;4.17;;;3.77;;
568;SDS011;269;48.884;9.192;2022-09-02T06:18:43;4.17;;;3.67;;
568;SDS011;269;48.884;9.192;2022-09-02T06:21:10;3.50;;;3.30;;
568;SDS011;269;48.884;9.192;2022-09-02T06:23:38;3.90;;;3.60;;
568;SDS011;269;48.884;9.192;2022-09-02T06:26:07;4.43;;;4.13;;
568;SDS011;269;48.884;9.192;2022-09-02T06:28:37;3.83;;;3.53;;
568;SDS011;269;48.884;9.192;2022-09-02T06:31:05;4.07;;;3.63;;
568;SDS011;269;48.884;9.192;2022-09-02T06:33:33;3.83;;;3.53;;
568;SDS011;269;48.884;9.192;2022-09-02T06:36:04;3.60;;;2.97;;
568;SDS011;269;48.884;9.192;2022-09-02T06:38:35;3.23;;;3.03;;
568;SDS011;269;48.884;9.192;2022-09-02T06:41:03;3.57;;;3.20;;
568;SDS011;269;48.884;9.192;2022-09-02T06:43:31;3.70;;;3.33;;
568;SDS011;269;48.884;9.192;2022-09-02T06:45:59;4.83;;;3.30;;
568;SDS011;269;48.884;9.192;2022-09-02T06:48:30;3.40;;;3.10;;
568;SDS011;269;48.884;9.192;2022-09-02T06:50:57;4.50;;;2.80;;
568;SDS011;269;48.884;9.192;2022-09-02T06:53:25;4.00;;;3.20;;
568;SDS011;269;48.884;9.192;2022-09-02T06:55:55;3.07;;;2.80;;
568;SDS011;269;48.884;9.192;2022-09-02T06:58:22;3.30;;;3.00;;
568;SDS011;269;48.884;9.192;2022-09-02T07:00:49;3.00;;;2.80;;
568;SDS011;269;48.884;9.192;2022-09-02T07:03:17;2.90;;;2.70;;
568;SDS011;269;48.884;9.192;2022-09-02T07:06:04;3.20;;;2.80;;
568;SDS011;269;48.884;9.192;2022-09-02T07:08:35;5.23;;;3.17;;
568;SDS011;269;48.884;9.192;2022-09-02T07:11:02;3.37;;;3.07;;
568;SDS011;269;48.884;9.192;2022-09-02T07:13:31;3.20;;;3.00;;
568;SDS011;269;48.884;9.192;2022-09-02T07:15:59;4.83;;;3.30;;
568;SDS011;269;48.884;9.192;2022-09-02T07:18:27;2.90;;;2.63;;
568;SDS011;269;48.884;9.192;2022-09-02T07:20:54;2.83;;;2.63;;
568;SDS011;269;48.884;9.192;2022-09-02T07:23:25;3.20;;;2.90;;
568;SDS011;269;48.884;9.192;2022-09-02T07:25:52;2.90;;;2.70;;
568;SDS011;269;48.884;9.192;2022-09-02T07:28:20;2.70;;;2.50;;
568;SDS011;269;48.884;9.192;2022-09-02T07:30:48;3.83;;;3.40;;
568;SDS011;269;48.884;9.192;2022-09-02T07:33:18;3.60;;;3.07;;
568;SDS011;269;48.884;9.192;2022-09-02T07:35:49;2.83;;;2.63;;
568;SDS011;269;48.884;9.192;2022-09-02T07:38:20;3.00;;;2.70;;
568;SDS011;269;48.884;9.192;2022-09-02T07:40:49;3.20;;;2.90;;
568;SDS011;269;48.884;9.192;2022-09-02T07:43:19;2.77;;;2.57;;
568;SDS011;269;48.884;9.192;2022-09-02T07:45:46;3.03;;;2.77;;
568;SDS011;269;48.884;9.192;2022-09-02T07:48:16;2.93;;;2.30;;
568;SDS011;269;48.884;9.192;2022-09-02T07:50:43;2.67;;;2.47;;
568;SDS011;269;48.884;9.192;2022-09-02T07:53:13;2.57;;;2.37;;
568;SDS011;269;48.884;9.192;2022-09-02T07:55:41;4.30;;;2.60;;
568;SDS011;269;48.884;9.192;2022-09-02T07:58:09;2.90;;;2.60;;
568;SDS011;269;48.884;9.192;2022-09-02T08:00:37;2.43;;;2.23;;
568;SDS011;269;48.884;9.192;2022-09-02T08:03:07;2.43;;;2.23;;
568;SDS011;269;48.884;9.192;2022-09-02T08:05:39;2.23;;;2.03;;
568;SDS011;269;48.884;9.192;2022-09-02T08:08:09;4.40;;;2.30;;
568;SDS011;269;48.884;9.192;2022-09-02T08:10:38;2.27;;;2.07;;
568;SDS011;269;48.884;9.192;2022-09-02T08:13:06;2.30;;;2.10;;
568;SDS011;269;48.884;9.192;2022-09-02T08:15:35;2.40;;;2.20;;
568;SDS011;269;48.884;9.192;2022-09-02T08:18:06;2.50;;;2.30;;
568;SDS011;269;48.884;9.192;2022-09-02T08:20:35;2.10;;;2.00;;
568;SDS011;269;48.884;9.192;2022-09-02T08:23:04;1.80;;;1.50;;
568;SDS011;269;48.884;9.192;2022-09-02T08:25:33;2.90;;;2.00;;
568;SDS011;269;48.884;9.192;2022-09-02T08:28:04;2.00;;;1.80;;
568;SDS011;269;48.884;9.192;2022-09-02T08:30:31;2.33;;;2.13;;
568;SDS011;269;48.884;9.192;2022-09-02T08:32:59;2.50;;;2.17;;
568;SDS011;269;48.884;9.192;2022-09-02T08:35:26;2.50;;;2.13;;
568;SDS011;269;48.884;9.192;2022-09-02T08:37:57;1.83;;;1.67;;
568;SDS011;269;48.884;9.192;2022-09-02T08:40:27;2.13;;;1.80;;
568;SDS011;269;48.884;9.192;2022-09-02T08:42:59;1.93;;;1.60;;
568;SDS011;269;48.884;9.192;2022-09-02T08:45:32;1.97;;;1.77;;
568;SDS011;269;48.884;9.192;2022-09-02T08:48:03;2.10;;;1.50;;
568;SDS011;269;48.884;9.192;2022-09-02T08:50:35;1.90;;;1.67;;
568;SDS011;269;48.884;9.192;2022-09-02T08:53:06;2.40;;;1.73;;
568;SDS011;269;48.884;9.192;2022-09-02T08:55:44;2.80;;;1.80;;
568;SDS011;269;48.884;9.192;2022-09-02T08:58:18;2.00;;;1.80;;
568;SDS011;269;48.884;9.192;2022-09-02T09:00:50;2.40;;;1.50;;
568;SDS011;269;48.884;9.192;2022-09-02T09:03:25;1.93;;;1.47;;
568;SDS011;269;48.884;9.192;2022-09-02T09:05:58;1.40;;;1.30;;
568;SDS011;269;48.884;9.192;2022-09-02T09:08:32;1.87;;;1.70;;
568;SDS011;269;48.884;9.192;2022-09-02T09:11:14;1.47;;;1.37;;
568;SDS011;269;48.884;9.192;2022-09-02T09:13:51;1.50;;;1.40;;
568;SDS011;269;48.884;9.192;2022-09-02T09:16:39;3.10;;;1.70;;
568;SDS011;269;48.884;9.192;2022-09-02T09:19:10;2.83;;;1.73;;
568;SDS011;269;48.884;9.192;2022-09-02T09:21:42;1.60;;;1.50;;
568;SDS011;269;48.884;9.192;2022-09-02T09:24:17;1.70;;;1.60;;
568;SDS011;269;48.884;9.192;2022-09-02T09:26:48;1.70;;;1.60;;
568;SDS011;269;48.884;9.192;2022-09-02T09:29:15;2.33;;;1.50;;
568;SDS011;269;48.884;9.192;2022-09-02T09:31:43;2.67;;;1.50;;
568;SDS011;269;48.884;9.192;2022-09-02T09:34:14;1.80;;;1.70;;
568;SDS011;269;48.884;9.192;2022-09-02T09:36:46;2.40;;;1.53;;
568;SDS011;269;48.884;9.192;2022-09-02T09:39:16;1.60;;;1.50;;
568;SDS011;269;48.884;9.192;2022-09-02T09:41:44;1.70;;;1.60;;
568;SDS011;269;48.884;9.192;2022-09-02T09:44:26;2.83;;;1.43;;
568;SDS011;269;48.884;9.192;2022-09-02T09:47:02;1.70;;;1.60;;
568;SDS011;269;48.884;9.192;2022-09-02T09:49:31;1.60;;;1.50;;
568;SDS011;269;48.884;9.192;2022-09-02T09:51:59;1.50;;;1.40;;
568;SDS011;269;48.884;9.192;2022-09-02T09:54:26;1.60;;;1.50;;
568;SDS011;269;48.884;9.192;2022-09-02T09:56:54;1.93;;;1.33;;
568;SDS011;269;48.884;9.192;2022-09-02T09:59:31;1.77;;;1.30;;
568;SDS011;269;48.884;9.192;2022-09-02T10:02:06;1.53;;;1.40;;
568;SDS011;269;48.884;9.192;2022-09-02T10:04:45;1.53;;;1.43;;
568;SDS011;269;48.884;9.192;2022-09-02T10:07:13;1.40;;;1.30;;
568;SDS011;269;48.884;9.192;2022-09-02T10:09:40;1.90;;;1.40;;
568;SDS011;269;48.884;9.192;2022-09-02T10:12:08;2.13;;;1.20;;
568;SDS011;269;48.884;9.192;2022-09-02T10:14:38;1.37;;;1.27;;
568;SDS011;269;48.884;9.192;2022-09-02T10:17:22;2.17;;;1.37;;
568;SDS011;269;48.884;9.192;2022-09-02T10:19:58;1.80;;;1.40;;
568;SDS011;269;48.884;9.192;2022-09-02T10:25:24;1.40;;;1.30;;
568;SDS011;269;48.884;9.192;2022-09-02T10:27:59;1.40;;;1.30;;
568;SDS011;269;48.884;9.192;2022-09-02T10:30:32;2.53;;;1.17;;
568;SDS011;269;48.884;9.192;2022-09-02T10:33:16;1.30;;;1.20;;
568;SDS011;269;48.884;9.192;2022-09-02T10:35:50;1.40;;;1.30;;
568;SDS011;269;48.884;9.192;2022-09-02T10:38:31;1.87;;;1.00;;
568;SDS011;269;48.884;9.192;2022-09-02T10:44:15;3.77;;;1.40;;
568;SDS011;269;48.884;9.192;2022-09-02T10:46:53;1.60;;;1.10;;
568;SDS011;269;48.884;9.192;2022-09-02T10:49:33;3.53;;;1.20;;
568;SDS011;269;48.884;9.192;2022-09-02T10:52:22;2.37;;;1.20;;
568;SDS011;269;48.884;9.192;2022-09-02T10:55:05;3.03;;;1.40;;
568;SDS011;269;48.884;9.192;2022-09-02T10:57:43;1.40;;;1.07;;
568;SDS011;269;48.884;9.192;2022-09-02T11:00:14;1.40;;;1.20;;
568;SDS011;269;48.884;9.192;2022-09-02T11:02:44;1.30;;;1.20;;
568;SDS011;269;48.884;9.192;2022-09-02T11:05:18;1.30;;;1.20;;
568;SDS011;269;48.884;9.192;2022-09-02T11:07:50;1.23;;;1.13;;
568;SDS011;269;48.884;9.192;2022-09-02T11:10:22;2.23;;;1.10;;
568;SDS011;269;48.884;9.192;2022-09-02T11:12:54;1.70;;;1.40;;
568;SDS011;269;48.884;9.192;2022-09-02T11:15:30;1.20;;;1.10;;
568;SDS011;269;48.884;9.192;2022-09-02T11:18:10;3.17;;;1.13;;
568;SDS011;269;48.884;9.192;2022-09-02T11:20:46;2.00;;;1.30;;
568;SDS011;269;48.884;9.192;2022-09-02T11:23:19;1.40;;;1.30;;
568;SDS011;269;48.884;9.192;2022-09-02T11:25:56;1.47;;;1.00;;
568;SDS011;269;48.884;9.192;2022-09-02T11:28:29;2.07;;;1.37;;
568;SDS011;269;48.884;9.192;2022-09-02T11:31:02;1.57;;;1.00;;
568;SDS011;269;48.884;9.192;2022-09-02T11:33:40;1.20;;;1.10;;
568;SDS011;269;48.884;9.192;2022-09-02T11:36:14;1.47;;;1.07;;
568;SDS011;269;48.884;9.192;2022-09-02T11:38:43;1.47;;;1.10;;
568;SDS011;269;48.884;9.192;2022-09-02T11:44:13;1.20;;;1.10;;
568;SDS011;269;48.884;9.192;2022-09-02T11:47:08;2.07;;;1.23;;
568;SDS011;269;48.884;9.192;2022-09-02T11:49:59;1.57;;;1.20;;
568;SDS011;269;48.884;9.192;2022-09-02T11:52:52;1.33;;;1.20;;
568;SDS011;269;48.884;9.192;2022-09-02T11:55:27;2.20;;;1.30;;
568;SDS011;269;48.884;9.192;2022-09-02T11:57:59;1.30;;;1.20;;
568;SDS011;269;48.884;9.192;2022-09-02T12:00:31;1.67;;;1.07;;
568;SDS011;269;48.884;9.192;2022-09-02T12:03:13;2.10;;;1.10;;
568;SDS011;269;48.884;9.192;2022-09-02T12:05:48;2.67;;;1.20;;
568;SDS011;269;48.884;9.192;2022-09-02T12:11:36;1.20;;;1.10;;
568;SDS011;269;48.884;9.192;2022-09-02T12:17:33;1.40;;;1.20;;
568;SDS011;269;48.884;9.192;2022-09-02T12:20:03;1.40;;;1.20;;
568;SDS011;269;48.884;9.192;2022-09-02T12:22:34;1.33;;;1.23;;
568;SDS011;269;48.884;9.192;2022-09-02T12:28:23;1.40;;;1.30;;
568;SDS011;269;48.884;9.192;2022-09-02T12:31:09;1.60;;;1.30;;
568;SDS011;269;48.884;9.192;2022-09-02T12:33:40;1.97;;;1.30;;
568;SDS011;269;48.884;9.192;2022-09-02T12:36:10;1.57;;;1.30;;
568;SDS011;269;48.884;9.192;2022-09-02T12:42:20;2.27;;;1.20;;
568;SDS011;269;48.884;9.192;2022-09-02T12:44:53;1.57;;;1.47;;
568;SDS011;269;48.884;9.192;2022-09-02T12:47:30;1.93;;;1.43;;
568;SDS011;269;48.884;9.192;2022-09-02T12:50:10;1.23;;;1.10;;
568;SDS011;269;48.884;9.192;2022-09-02T12:52:49;1.67;;;1.57;;
568;SDS011;269;48.884;9.192;2022-09-02T12:55:20;1.30;;;1.20;;
568;SDS011;269;48.884;9.192;2022-09-02T12:57:50;1.80;;;1.10;;
568;SDS011;269;48.884;9.192;2022-09-02T13:00:29;1.50;;;1.40;;
568;SDS011;269;48.884;9.192;2022-09-02T13:03:06;2.30;;;1.40;;
568;SDS011;269;48.884;9.192;2022-09-02T13:05:49;4.67;;;1.30;;
568;SDS011;269;48.884;9.192;2022-09-02T13:11:42;1.57;;;1.27;;
568;SDS011;269;48.884;9.192;2022-09-02T13:14:46;1.43;;;1.33;;
568;SDS011;269;48.884;9.192;2022-09-02T13:17:30;1.80;;;1.50;;
568;SDS011;269;48.884;9.192;2022-09-02T13:26:35;2.30;;;1.27;;
568;SDS011;269;48.884;9.192;2022-09-02T13:32:31;1.97;;;1.20;;
568;SDS011;269;48.884;9.192;2022-09-02T13:35:00;2.40;;;1.20;;
568;SDS011;269;48.884;9.192;2022-09-02T13:37:30;1.90;;;1.33;;
568;SDS011;269;48.884;9.192;2022-09-02T13:40:00;2.70;;;1.17;;
568;SDS011;269;48.884;9.192;2022-09-02T13:42:32;1.50;;;1.40;;
568;SDS011;269;48.884;9.192;2022-09-02T13:45:12;1.27;;;1.17;;
568;SDS011;269;48.884;9.192;2022-09-02T13:47:41;1.30;;;1.20;;
568;SDS011;269;48.884;9.192;2022-09-02T13:50:10;1.30;;;1.20;;
568;SDS011;269;48.884;9.192;2022-09-02T13:52:40;1.20;;;1.10;;
568;SDS011;269;48.884;9.192;2022-09-02T13:55:09;1.80;;;1.50;;
568;SDS011;269;48.884;9.192;2022-09-02T13:57:43;1.30;;;1.20;;
568;SDS011;269;48.884;9.192;2022-09-02T14:00:13;1.90;;;1.20;;
568;SDS011;269;48.884;9.192;2022-09-02T14:02:53;1.53;;;1.43;;
568;SDS011;269;48.884;9.192;2022-09-02T14:05:22;1.43;;;1.33;;
568;SDS011;269;48.884;9.192;2022-09-02T14:07:51;1.43;;;1.27;;
568;SDS011;269;48.884;9.192;2022-09-02T14:10:23;1.37;;;1.27;;
568;SDS011;269;48.884;9.192;2022-09-02T14:12:54;1.70;;;1.30;;
568;SDS011;269;48.884;9.192;2022-09-02T14:15:23;1.40;;;1.10;;
568;SDS011;269;48.884;9.192;2022-09-02T14:18:08;4.43;;;1.40;;
568;SDS011;269;48.884;9.192;2022-09-02T14:20:37;1.77;;;1.57;;
568;SDS011;269;48.884;9.192;2022-09-02T14:23:05;3.20;;;1.40;;
568;SDS011;269;48.884;9.192;2022-09-02T14:25:47;1.73;;;1.33;;
568;SDS011;269;48.884;9.192;2022-09-02T14:28:19;1.57;;;1.10;;
568;SDS011;269;48.884;9.192;2022-09-02T14:30:58;1.53;;;1.40;;
568;SDS011;269;48.884;9.192;2022-09-02T14:33:35;1.50;;;1.40;;
568;SDS011;269;48.884;9.192;2022-09-02T14:36:05;2.00;;;1.20;;
568;SDS011;269;48.884;9.192;2022-09-02T14:38:35;1.50;;;1.40;;
568;SDS011;269;48.884;9.192;2022-09-02T14:41:18;1.50;;;1.27;;
568;SDS011;269;48.884;9.192;2022-09-02T14:43:49;1.63;;;1.33;;
568;SDS011;269;48.884;9.192;2022-09-02T14:46:22;1.80;;;1.23;;
568;SDS011;269;48.884;9.192;2022-09-02T14:48:55;1.30;;;1.20;;
568;SDS011;269;48.884;9.192;2022-09-02T14:51:30;1.67;;;1.43;;
568;SDS011;269;48.884;9.192;2022-09-02T14:54:01;1.77;;;1.67;;
568;SDS011;269;48.884;9.192;2022-09-02T14:56:41;2.37;;;1.60;;
568;SDS011;269;48.884;9.192;2022-09-02T14:59:11;1.80;;;1.40;;
568;SDS011;269;48.884;9.192;2022-09-02T15:01:39;2.07;;;1.37;;
568;SDS011;269;48.884;9.192;2022-09-02T15:04:07;1.23;;;1.10;;
568;SDS011;269;48.884;9.192;2022-09-02T15:06:35;1.97;;;1.30;;
568;SDS011;269;48.884;9.192;2022-09-02T15:09:02;1.50;;;1.40;;
568;SDS011;269;48.884;9.192;2022-09-02T15:11:29;1.97;;;1.30;;
568;SDS011;269;48.884;9.192;2022-09-02T15:13:56;2.07;;;1.57;;
568;SDS011;269;48.884;9.192;2022-09-02T15:16:25;2.50;;;1.37;;
568;SDS011;269;48.884;9.192;2022-09-02T15:18:53;2.23;;;1.50;;
568;SDS011;269;48.884;9.192;2022-09-02T15:21:20;2.50;;;1.27;;
568;SDS011;269;48.884;9.192;2022-09-02T15:23:47;1.93;;;1.27;;
568;SDS011;269;48.884;9.192;2022-09-02T15:26:15;1.50;;;1.40;;
568;SDS011;269;48.884;9.192;2022-09-02T15:28:42;2.20;;;1.60;;
568;SDS011;269;48.884;9.192;2022-09-02T15:31:09;1.50;;;1.40;;
568;SDS011;269;48.884;9.192;2022-09-02T15:33:38;1.63;;;1.37;;
568;SDS011;269;48.884;9.192;2022-09-02T15:36:06;1.87;;;1.47;;
568;SDS011;269;48.884;9.192;2022-09-02T15:38:34;1.40;;;1.20;;
568;SDS011;269;48.884;9.192;2022-09-02T15:41:09;1.27;;;1.17;;
568;SDS011;269;48.884;9.192;2022-09-02T15:43:38;2.97;;;1.50;;
568;SDS011;269;48.884;9.192;2022-09-02T15:46:09;1.40;;;1.30;;
568;SDS011;269;48.884;9.192;2022-09-02T15:48:51;1.50;;;1.40;;
568;SDS011;269;48.884;9.192;2022-09-02T15:51:19;1.50;;;1.40;;
568;SDS011;269;48.884;9.192;2022-09-02T15:53:52;1.40;;;1.20;;
568;SDS011;269;48.884;9.192;2022-09-02T15:56:20;1.60;;;1.40;;
568;SDS011;269;48.884;9.192;2022-09-02T15:58:52;1.47;;;1.37;;
568;SDS011;269;48.884;9.192;2022-09-02T16:01:22;1.87;;;1.47;;
568;SDS011;269;48.884;9.192;2022-09-02T16:03:51;2.00;;;1.33;;
568;SDS011;269;48.884;9.192;2022-09-02T16:06:19;2.20;;;1.53;;
568;SDS011;269;48.884;9.192;2022-09-02T16:08:46;1.87;;;1.50;;
568;SDS011;269;48.884;9.192;2022-09-02T16:11:13;1.50;;;1.40;;
568;SDS011;269;48.884;9.192;2022-09-02T16:13:41;1.50;;;1.40;;
568;SDS011;269;48.884;9.192;2022-09-02T16:16:09;1.50;;;1.30;;
568;SDS011;269;48.884;9.192;2022-09-02T16:18:38;2.20;;;1.53;;
568;SDS011;269;48.884;9.192;2022-09-02T16:21:08;1.53;;;1.43;;
568;SDS011;269;48.884;9.192;2022-09-02T16:23:37;1.63;;;1.53;;
568;SDS011;269;48.884;9.192;2022-09-02T16:26:05;1.43;;;1.30;;
568;SDS011;269;48.884;9.192;2022-09-02T16:28:36;1.50;;;1.40;;
568;SDS011;269;48.884;9.192;2022-09-02T16:31:04;2.80;;;1.60;;
568;SDS011;269;48.884;9.192;2022-09-02T16:33:33;1.50;;;1.40;;
568;SDS011;269;48.884;9.192;2022-09-02T16:36:01;2.10;;;1.60;;
568;SDS011;269;48.884;9.192;2022-09-02T16:38:30;1.63;;;1.40;;
568;SDS011;269;48.884;9.192;2022-09-02T16:40:58;1.97;;;1.13;;
568;SDS011;269;48.884;9.192;2022-09-02T16:43:26;4.00;;;1.43;;